sensor_id;sensor_type;location;lat;lon;timestamp;temperature;humidity
22623;DHT22;11478;51.094;7.030;2022-07-12T00:02:24;13.40;99.90
22623;DHT22;11478;51.094;7.030;2022-07-12T00:04:52;13.30;99.90
22623;DHT22;11478;51.094;7.030;2022-07-12T00:07:19;13.30;99.90
22623;DHT22;11478;51.094;7.030;2022-07-12T00:09:47;13.20;99.90
22623;DHT22;11478;51.094;7.030;2022-07-12T00:12:13;13.20;99.90
22623;DHT22;11478;51.094;7.030;2022-07-12T00:14:45;13.10;99.90
22623;DHT22;11478;51.094;7.030;2022-07-12T00:17:11;13.10;99.90
22623;DHT22;11478;51.094;7.030;2022-07-12T00:19:39;13.10;99.90
22623;DHT22;11478;51.094;7.030;2022-07-12T00:22:09;13.00;99.90
22623;DHT22;11478;51.094;7.030;2022-07-12T00:24:40;13.00;99.90
22623;DHT22;11478;51.094;7.030;2022-07-12T00:27:06;13.00;99.90
22623;DHT22;11478;51.094;7.030;2022-07-12T00:29:34;13.00;99.90
22623;DHT22;11478;51.094;7.030;2022-07-12T00:32:01;12.90;99.90
22623;DHT22;11478;51.094;7.030;2022-07-12T00:34:27;12.90;99.90
22623;DHT22;11478;51.094;7.030;2022-07-12T00:36:54;12.80;99.90
22623;DHT22;11478;51.094;7.030;2022-07-12T00:39:20;12.80;99.90
22623;DHT22;11478;51.094;7.030;2022-07-12T00:41:48;12.80;99.90
22623;DHT22;11478;51.094;7.030;2022-07-12T00:44:14;12.80;99.90
22623;DHT22;11478;51.094;7.030;2022-07-12T00:46:44;12.80;99.90
22623;DHT22;11478;51.094;7.030;2022-07-12T00:49:13;12.90;99.90
22623;DHT22;11478;51.094;7.030;2022-07-12T00:51:43;12.90;99.90
22623;DHT22;11478;51.094;7.030;2022-07-12T00:54:10;12.80;99.90
22623;DHT22;11478;51.094;7.030;2022-07-12T00:56:39;12.80;99.90
22623;DHT22;11478;51.094;7.030;2022-07-12T00:59:05;12.80;99.90
22623;DHT22;11478;51.094;7.030;2022-07-12T01:01:34;12.70;99.90
22623;DHT22;11478;51.094;7.030;2022-07-12T01:04:01;12.70;99.90
22623;DHT22;11478;51.094;7.030;2022-07-12T01:06:45;12.70;99.90
22623;DHT22;11478;51.094;7.030;2022-07-12T01:09:11;12.70;99.90
22623;DHT22;11478;51.094;7.030;2022-07-12T01:11:38;12.70;99.90
22623;DHT22;11478;51.094;7.030;2022-07-12T01:14:04;12.60;99.90
22623;DHT22;11478;51.094;7.030;2022-07-12T01:16:38;12.60;99.90
22623;DHT22;11478;51.094;7.030;2022-07-12T01:19:06;12.50;99.90
22623;DHT22;11478;51.094;7.030;2022-07-12T01:21:43;12.50;99.90
22623;DHT22;11478;51.094;7.030;2022-07-12T01:24:12;12.50;99.90
22623;DHT22;11478;51.094;7.030;2022-07-12T01:26:38;12.50;99.90
22623;DHT22;11478;51.094;7.030;2022-07-12T01:29:06;12.50;99.90
22623;DHT22;11478;51.094;7.030;2022-07-12T01:31:34;12.40;99.90
22623;DHT22;11478;51.094;7.030;2022-07-12T01:34:02;12.40;99.90
22623;DHT22;11478;51.094;7.030;2022-07-12T01:36:28;12.40;99.90
22623;DHT22;11478;51.094;7.030;2022-07-12T01:39:15;12.40;99.90
22623;DHT22;11478;51.094;7.030;2022-07-12T01:41:42;12.40;99.90
22623;DHT22;11478;51.094;7.030;2022-07-12T01:44:13;12.40;99.90
22623;DHT22;11478;51.094;7.030;2022-07-12T01:46:39;12.40;99.90
22623;DHT22;11478;51.094;7.030;2022-07-12T01:49:09;12.40;99.90
22623;DHT22;11478;51.094;7.030;2022-07-12T01:51:39;12.30;99.90
22623;DHT22;11478;51.094;7.030;2022-07-12T01:54:06;12.40;99.90
22623;DHT22;11478;51.094;7.030;2022-07-12T01:56:33;12.40;99.90
22623;DHT22;11478;51.094;7.030;2022-07-12T01:59:04;12.40;99.90
22623;DHT22;11478;51.094;7.030;2022-07-12T02:01:30;12.40;99.90
22623;DHT22;11478;51.094;7.030;2022-07-12T02:04:04;12.40;99.90
22623;DHT22;11478;51.094;7.030;2022-07-12T02:06:30;12.40;99.90
22623;DHT22;11478;51.094;7.030;2022-07-12T02:09:04;12.40;99.90
22623;DHT22;11478;51.094;7.030;2022-07-12T02:11:32;12.40;99.90
22623;DHT22;11478;51.094;7.030;2022-07-12T02:14:18;12.40;99.90
22623;DHT22;11478;51.094;7.030;2022-07-12T16:11:27;25.70;99.90
22623;DHT22;11478;51.094;7.030;2022-07-12T16:13:53;25.60;99.90
22623;DHT22;11478;51.094;7.030;2022-07-12T16:16:23;25.40;99.90
22623;DHT22;11478;51.094;7.030;2022-07-12T16:18:49;25.40;99.90
22623;DHT22;11478;51.094;7.030;2022-07-12T16:21:15;25.30;99.90
22623;DHT22;11478;51.094;7.030;2022-07-12T16:23:44;25.40;99.90
22623;DHT22;11478;51.094;7.030;2022-07-12T16:26:10;25.40;99.90
22623;DHT22;11478;51.094;7.030;2022-07-12T16:28:35;25.40;99.90
22623;DHT22;11478;51.094;7.030;2022-07-12T16:31:08;25.50;99.90
22623;DHT22;11478;51.094;7.030;2022-07-12T16:33:35;25.50;99.90
22623;DHT22;11478;51.094;7.030;2022-07-12T16:36:04;25.60;99.90
22623;DHT22;11478;51.094;7.030;2022-07-12T16:38:30;25.60;99.90
22623;DHT22;11478;51.094;7.030;2022-07-12T16:41:00;25.60;99.90
22623;DHT22;11478;51.094;7.030;2022-07-12T16:43:26;25.60;99.90
22623;DHT22;11478;51.094;7.030;2022-07-12T16:45:55;25.50;99.90
22623;DHT22;11478;51.094;7.030;2022-07-12T16:48:24;25.40;99.90
22623;DHT22;11478;51.094;7.030;2022-07-12T16:50:51;25.20;99.90
22623;DHT22;11478;51.094;7.030;2022-07-12T16:53:35;25.10;99.90
22623;DHT22;11478;51.094;7.030;2022-07-12T16:56:01;24.90;99.90
22623;DHT22;11478;51.094;7.030;2022-07-12T16:58:27;24.80;99.90
22623;DHT22;11478;51.094;7.030;2022-07-12T17:00:55;24.60;99.90
22623;DHT22;11478;51.094;7.030;2022-07-12T17:03:21;24.40;99.90
22623;DHT22;11478;51.094;7.030;2022-07-12T17:05:47;24.30;99.90
22623;DHT22;11478;51.094;7.030;2022-07-12T17:08:13;24.20;99.90
22623;DHT22;11478;51.094;7.030;2022-07-12T17:10:42;24.10;99.90
22623;DHT22;11478;51.094;7.030;2022-07-12T17:13:08;24.00;99.90
22623;DHT22;11478;51.094;7.030;2022-07-12T17:15:33;23.80;99.90
22623;DHT22;11478;51.094;7.030;2022-07-12T17:17:59;23.70;99.90
22623;DHT22;11478;51.094;7.030;2022-07-12T17:20:25;23.60;99.90
22623;DHT22;11478;51.094;7.030;2022-07-12T17:22:52;23.50;99.90
22623;DHT22;11478;51.094;7.030;2022-07-12T17:25:18;23.40;99.90
22623;DHT22;11478;51.094;7.030;2022-07-12T17:27:44;23.30;99.90
22623;DHT22;11478;51.094;7.030;2022-07-12T17:30:11;23.30;99.90
22623;DHT22;11478;51.094;7.030;2022-07-12T17:32:40;23.20;99.90
22623;DHT22;11478;51.094;7.030;2022-07-12T17:35:12;23.10;99.90
22623;DHT22;11478;51.094;7.030;2022-07-12T17:37:41;23.00;99.90
22623;DHT22;11478;51.094;7.030;2022-07-12T17:40:10;23.00;99.90
22623;DHT22;11478;51.094;7.030;2022-07-12T17:42:37;22.90;99.90
22623;DHT22;11478;51.094;7.030;2022-07-12T17:45:03;22.80;99.90
22623;DHT22;11478;51.094;7.030;2022-07-12T17:47:29;22.70;99.90
22623;DHT22;11478;51.094;7.030;2022-07-12T17:49:57;22.70;99.90
22623;DHT22;11478;51.094;7.030;2022-07-12T17:52:29;22.60;99.90
22623;DHT22;11478;51.094;7.030;2022-07-12T17:54:55;22.50;99.90
22623;DHT22;11478;51.094;7.030;2022-07-12T17:57:28;22.50;99.90
22623;DHT22;11478;51.094;7.030;2022-07-12T17:59:54;22.40;99.90
22623;DHT22;11478;51.094;7.030;2022-07-12T18:02:24;22.40;99.90
22623;DHT22;11478;51.094;7.030;2022-07-12T18:04:51;22.30;99.90
22623;DHT22;11478;51.094;7.030;2022-07-12T18:07:20;22.30;99.90
22623;DHT22;11478;51.094;7.030;2022-07-12T18:09:48;22.30;99.90
22623;DHT22;11478;51.094;7.030;2022-07-12T18:12:13;22.20;99.90
22623;DHT22;11478;51.094;7.030;2022-07-12T18:17:28;22.10;99.90
22623;DHT22;11478;51.094;7.030;2022-07-12T18:20:12;22.10;99.90
22623;DHT22;11478;51.094;7.030;2022-07-12T18:22:39;22.00;99.90
22623;DHT22;11478;51.094;7.030;2022-07-12T18:25:11;21.90;99.90
22623;DHT22;11478;51.094;7.030;2022-07-12T18:27:38;21.90;99.90
22623;DHT22;11478;51.094;7.030;2022-07-12T18:30:05;21.90;99.90
22623;DHT22;11478;51.094;7.030;2022-07-12T18:32:32;21.80;99.90
22623;DHT22;11478;51.094;7.030;2022-07-12T18:34:58;21.70;99.90
22623;DHT22;11478;51.094;7.030;2022-07-12T18:37:24;21.60;99.90
22623;DHT22;11478;51.094;7.030;2022-07-12T18:39:52;21.60;99.90
22623;DHT22;11478;51.094;7.030;2022-07-12T18:42:19;21.50;99.90
22623;DHT22;11478;51.094;7.030;2022-07-12T18:44:46;21.50;99.90
22623;DHT22;11478;51.094;7.030;2022-07-12T18:47:12;21.40;99.90
22623;DHT22;11478;51.094;7.030;2022-07-12T18:49:40;21.40;99.90
22623;DHT22;11478;51.094;7.030;2022-07-12T18:52:06;21.30;99.90
22623;DHT22;11478;51.094;7.030;2022-07-12T18:54:37;21.30;99.90
22623;DHT22;11478;51.094;7.030;2022-07-12T18:57:03;21.30;99.90
22623;DHT22;11478;51.094;7.030;2022-07-12T18:59:36;21.20;99.90
22623;DHT22;11478;51.094;7.030;2022-07-12T19:02:03;21.20;99.90
22623;DHT22;11478;51.094;7.030;2022-07-12T19:04:29;21.10;99.90
22623;DHT22;11478;51.094;7.030;2022-07-12T19:06:56;21.00;99.90
22623;DHT22;11478;51.094;7.030;2022-07-12T19:09:22;21.00;99.90
22623;DHT22;11478;51.094;7.030;2022-07-12T19:11:49;21.00;99.90
22623;DHT22;11478;51.094;7.030;2022-07-12T19:14:15;20.90;99.90
22623;DHT22;11478;51.094;7.030;2022-07-12T19:16:41;20.90;99.90
22623;DHT22;11478;51.094;7.030;2022-07-12T19:19:07;20.80;99.90
22623;DHT22;11478;51.094;7.030;2022-07-12T19:21:34;20.70;99.90
22623;DHT22;11478;51.094;7.030;2022-07-12T19:24:00;20.60;99.90
22623;DHT22;11478;51.094;7.030;2022-07-12T19:26:28;20.60;99.90
22623;DHT22;11478;51.094;7.030;2022-07-12T19:28:55;20.50;99.90
22623;DHT22;11478;51.094;7.030;2022-07-12T19:31:21;20.50;99.90
22623;DHT22;11478;51.094;7.030;2022-07-12T19:33:52;20.40;99.90
22623;DHT22;11478;51.094;7.030;2022-07-12T19:36:18;20.30;99.90
22623;DHT22;11478;51.094;7.030;2022-07-12T19:38:51;20.30;99.90
22623;DHT22;11478;51.094;7.030;2022-07-12T19:41:17;20.20;99.90
22623;DHT22;11478;51.094;7.030;2022-07-12T19:43:43;20.20;99.90
22623;DHT22;11478;51.094;7.030;2022-07-12T19:46:09;20.20;99.90
22623;DHT22;11478;51.094;7.030;2022-07-12T19:48:37;20.10;99.90
22623;DHT22;11478;51.094;7.030;2022-07-12T19:51:03;20.10;99.90
22623;DHT22;11478;51.094;7.030;2022-07-12T19:53:32;20.00;99.90
22623;DHT22;11478;51.094;7.030;2022-07-12T19:55:59;20.00;99.90
22623;DHT22;11478;51.094;7.030;2022-07-12T19:58:25;20.00;99.90
22623;DHT22;11478;51.094;7.030;2022-07-12T20:00:51;19.90;99.90
22623;DHT22;11478;51.094;7.030;2022-07-12T20:03:19;19.90;99.90
22623;DHT22;11478;51.094;7.030;2022-07-12T20:05:45;19.90;99.90
22623;DHT22;11478;51.094;7.030;2022-07-12T20:08:12;19.80;99.90
22623;DHT22;11478;51.094;7.030;2022-07-12T20:10:46;19.80;99.90
22623;DHT22;11478;51.094;7.030;2022-07-12T20:13:12;19.70;99.90
22623;DHT22;11478;51.094;7.030;2022-07-12T20:15:38;19.70;99.90
22623;DHT22;11478;51.094;7.030;2022-07-12T20:18:06;19.70;99.90
22623;DHT22;11478;51.094;7.030;2022-07-12T20:20:37;19.70;99.90
22623;DHT22;11478;51.094;7.030;2022-07-12T20:23:06;19.70;99.90
22623;DHT22;11478;51.094;7.030;2022-07-12T20:25:41;19.70;99.90
22623;DHT22;11478;51.094;7.030;2022-07-12T20:28:08;19.60;99.90
22623;DHT22;11478;51.094;7.030;2022-07-12T20:30:36;19.60;99.90
22623;DHT22;11478;51.094;7.030;2022-07-12T20:33:01;19.60;99.90
22623;DHT22;11478;51.094;7.030;2022-07-12T20:35:47;19.50;99.90
22623;DHT22;11478;51.094;7.030;2022-07-12T20:38:14;19.50;99.90
22623;DHT22;11478;51.094;7.030;2022-07-12T20:40:41;19.50;99.90
22623;DHT22;11478;51.094;7.030;2022-07-12T20:43:07;19.40;99.90
22623;DHT22;11478;51.094;7.030;2022-07-12T20:45:37;19.40;99.90
22623;DHT22;11478;51.094;7.030;2022-07-12T20:48:07;19.40;99.90
22623;DHT22;11478;51.094;7.030;2022-07-12T20:50:33;19.30;99.90
22623;DHT22;11478;51.094;7.030;2022-07-12T20:53:00;19.30;99.90
22623;DHT22;11478;51.094;7.030;2022-07-12T20:55:27;19.30;99.90
22623;DHT22;11478;51.094;7.030;2022-07-12T20:57:54;19.30;99.90
22623;DHT22;11478;51.094;7.030;2022-07-12T21:00:21;19.30;99.90
22623;DHT22;11478;51.094;7.030;2022-07-12T21:02:48;19.20;99.90
22623;DHT22;11478;51.094;7.030;2022-07-12T21:05:19;19.10;99.90
22623;DHT22;11478;51.094;7.030;2022-07-12T21:07:46;19.00;99.90
22623;DHT22;11478;51.094;7.030;2022-07-12T21:10:12;19.00;99.90
22623;DHT22;11478;51.094;7.030;2022-07-12T21:12:40;19.00;99.90
22623;DHT22;11478;51.094;7.030;2022-07-12T21:15:06;18.90;99.90
22623;DHT22;11478;51.094;7.030;2022-07-12T21:17:42;18.90;99.90
22623;DHT22;11478;51.094;7.030;2022-07-12T21:20:08;18.80;99.90
22623;DHT22;11478;51.094;7.030;2022-07-12T21:22:34;18.70;99.90
22623;DHT22;11478;51.094;7.030;2022-07-12T21:25:01;18.70;99.90
22623;DHT22;11478;51.094;7.030;2022-07-12T21:27:28;18.60;99.90
22623;DHT22;11478;51.094;7.030;2022-07-12T21:29:55;18.60;99.90
22623;DHT22;11478;51.094;7.030;2022-07-12T21:32:22;18.60;99.90
22623;DHT22;11478;51.094;7.030;2022-07-12T21:34:49;18.60;99.90
22623;DHT22;11478;51.094;7.030;2022-07-12T21:37:19;18.50;99.90
22623;DHT22;11478;51.094;7.030;2022-07-12T21:39:47;18.50;99.90
22623;DHT22;11478;51.094;7.030;2022-07-12T21:42:12;18.50;99.90
22623;DHT22;11478;51.094;7.030;2022-07-12T21:44:39;18.40;99.90
22623;DHT22;11478;51.094;7.030;2022-07-12T21:47:12;18.40;99.90
22623;DHT22;11478;51.094;7.030;2022-07-12T21:49:39;18.40;99.90
22623;DHT22;11478;51.094;7.030;2022-07-12T21:52:05;18.30;99.90
22623;DHT22;11478;51.094;7.030;2022-07-12T21:54:32;18.30;99.90
22623;DHT22;11478;51.094;7.030;2022-07-12T21:57:00;18.30;99.90
22623;DHT22;11478;51.094;7.030;2022-07-12T21:59:27;18.30;99.90
22623;DHT22;11478;51.094;7.030;2022-07-12T22:01:53;18.20;99.90
22623;DHT22;11478;51.094;7.030;2022-07-12T22:04:20;18.20;99.90
22623;DHT22;11478;51.094;7.030;2022-07-12T22:09:39;18.20;99.90
22623;DHT22;11478;51.094;7.030;2022-07-12T22:12:06;18.30;99.90
22623;DHT22;11478;51.094;7.030;2022-07-12T22:14:33;18.30;99.90
22623;DHT22;11478;51.094;7.030;2022-07-12T22:16:59;18.30;99.90
22623;DHT22;11478;51.094;7.030;2022-07-12T22:19:25;18.30;99.90
22623;DHT22;11478;51.094;7.030;2022-07-12T22:21:51;18.30;99.90
22623;DHT22;11478;51.094;7.030;2022-07-12T22:24:19;18.30;99.90
22623;DHT22;11478;51.094;7.030;2022-07-12T22:26:45;18.30;99.90
22623;DHT22;11478;51.094;7.030;2022-07-12T22:29:13;18.30;99.90
22623;DHT22;11478;51.094;7.030;2022-07-12T22:31:40;18.30;99.90
22623;DHT22;11478;51.094;7.030;2022-07-12T22:34:07;18.30;99.90
22623;DHT22;11478;51.094;7.030;2022-07-12T22:36:33;18.30;99.90
22623;DHT22;11478;51.094;7.030;2022-07-12T22:39:00;18.30;99.90
22623;DHT22;11478;51.094;7.030;2022-07-12T22:41:26;18.30;99.90
22623;DHT22;11478;51.094;7.030;2022-07-12T22:43:54;18.20;99.90
22623;DHT22;11478;51.094;7.030;2022-07-12T22:46:21;18.20;99.90
22623;DHT22;11478;51.094;7.030;2022-07-12T22:48:48;18.20;99.90
22623;DHT22;11478;51.094;7.030;2022-07-12T22:51:15;18.10;99.90
22623;DHT22;11478;51.094;7.030;2022-07-12T22:54:04;18.10;99.90
22623;DHT22;11478;51.094;7.030;2022-07-12T22:56:29;18.00;99.90
22623;DHT22;11478;51.094;7.030;2022-07-12T22:59:03;17.90;99.90
22623;DHT22;11478;51.094;7.030;2022-07-12T23:01:31;17.90;99.90
22623;DHT22;11478;51.094;7.030;2022-07-12T23:04:00;17.90;99.90
22623;DHT22;11478;51.094;7.030;2022-07-12T23:06:25;17.90;99.90
22623;DHT22;11478;51.094;7.030;2022-07-12T23:08:58;17.90;99.90
22623;DHT22;11478;51.094;7.030;2022-07-12T23:11:25;17.90;99.90
22623;DHT22;11478;51.094;7.030;2022-07-12T23:13:51;17.80;99.90
22623;DHT22;11478;51.094;7.030;2022-07-12T23:16:17;17.80;99.90
22623;DHT22;11478;51.094;7.030;2022-07-12T23:19:00;17.70;99.90
22623;DHT22;11478;51.094;7.030;2022-07-12T23:21:28;17.70;99.90
22623;DHT22;11478;51.094;7.030;2022-07-12T23:23:54;17.60;99.90
22623;DHT22;11478;51.094;7.030;2022-07-12T23:26:21;17.60;99.90
22623;DHT22;11478;51.094;7.030;2022-07-12T23:28:47;17.70;99.90
22623;DHT22;11478;51.094;7.030;2022-07-12T23:31:14;17.60;99.90
22623;DHT22;11478;51.094;7.030;2022-07-12T23:33:41;17.60;99.90
22623;DHT22;11478;51.094;7.030;2022-07-12T23:36:08;17.60;99.90
22623;DHT22;11478;51.094;7.030;2022-07-12T23:38:35;17.50;99.90
22623;DHT22;11478;51.094;7.030;2022-07-12T23:41:02;17.50;99.90
22623;DHT22;11478;51.094;7.030;2022-07-12T23:43:28;17.50;99.90
22623;DHT22;11478;51.094;7.030;2022-07-12T23:45:54;17.50;99.90
22623;DHT22;11478;51.094;7.030;2022-07-12T23:48:21;17.50;99.90
22623;DHT22;11478;51.094;7.030;2022-07-12T23:50:47;17.50;99.90
22623;DHT22;11478;51.094;7.030;2022-07-12T23:53:13;17.50;99.90
22623;DHT22;11478;51.094;7.030;2022-07-12T23:55:39;17.50;99.90
22623;DHT22;11478;51.094;7.030;2022-07-12T23:58:11;17.50;99.90
